Time;durP1;ratioP1;P1;durP2;ratioP2;P2;SDS_P1;SDS_P2;PMS_P1;PMS_P2;Temp;Humidity;BMP_temperature;BMP_pressure;BME280_temperature;BME280_humidity;BME280_pressure;Samples;Min_cycle;Max_cycle;Signal;HPM_P1;HPM_P2
2023/09/28 00:01:18;;;;;;;974.10;845.63;;;17.50;99.90;;;;;;4890567;29;20059;-83
2023/09/28 00:03:45;;;;;;;1017.90;857.97;;;17.50;99.90;;;;;;4874607;29;20087;-83
2023/09/28 00:06:11;;;;;;;1005.78;857.70;;;17.50;99.90;;;;;;4890997;29;20092;-83
2023/09/28 00:08:37;;;;;;;1039.35;870.83;;;17.50;99.90;;;;;;4891150;29;20048;-84
2023/09/28 00:11:05;;;;;;;1038.38;869.28;;;17.50;99.90;;;;;;4874819;29;20052;-84
2023/09/28 00:13:30;;;;;;;1052.75;886.95;;;17.50;99.90;;;;;;4892411;29;20066;-84
2023/09/28 00:15:56;;;;;;;1050.82;883.78;;;17.50;99.90;;;;;;4889596;29;20592;-84
2023/09/28 00:18:23;;;;;;;1029.93;874.55;;;17.50;99.90;;;;;;4890558;29;20070;-84
2023/09/28 00:20:51;;;;;;;1011.17;864.35;;;17.50;99.90;;;;;;4875163;29;20048;-84
2023/09/28 00:23:17;;;;;;;1093.28;891.30;;;17.50;99.90;;;;;;4875098;29;20469;-84
2023/09/28 00:25:44;;;;;;;1100.63;906.92;;;17.50;99.90;;;;;;4874259;29;20056;-84
2023/09/28 00:28:09;;;;;;;1062.15;890.53;;;17.50;99.90;;;;;;4890360;29;20080;-83
2023/09/28 00:30:35;;;;;;;1075.47;895.40;;;17.50;99.90;;;;;;4890075;29;20084;-84
2023/09/28 00:33:01;;;;;;;1025.82;882.47;;;17.50;99.90;;;;;;4873997;29;20060;-84
2023/09/28 00:35:27;;;;;;;1066.10;896.97;;;17.50;99.90;;;;;;4881349;29;20081;-83
2023/09/28 00:37:54;;;;;;;1092.50;896.92;;;17.40;99.90;;;;;;4890228;29;20111;-84
2023/09/28 00:40:21;;;;;;;1096.75;899.45;;;17.50;99.90;;;;;;4874438;29;20156;-84
2023/09/28 00:42:52;;;;;;;1110.38;903.78;;;17.50;99.90;;;;;;4890307;29;20036;-84
2023/09/28 00:45:20;;;;;;;1062.38;886.10;;;17.50;99.90;;;;;;4889397;29;20063;-84
2023/09/28 00:47:46;;;;;;;1079.97;899.63;;;17.50;99.90;;;;;;4890273;29;20060;-84
2023/09/28 00:50:20;;;;;;;1129.72;914.25;;;17.50;99.90;;;;;;4890203;29;20428;-83
2023/09/28 00:53:00;;;;;;;1089.95;891.35;;;17.50;99.90;;;;;;4889498;29;20051;-83
2023/09/28 00:55:30;;;;;;;1061.32;887.40;;;17.50;99.90;;;;;;4890746;29;20520;-84
2023/09/28 00:58:00;;;;;;;1037.55;876.40;;;17.40;99.90;;;;;;4874250;29;20049;-83
2023/09/28 01:00:28;;;;;;;1054.85;881.30;;;17.40;99.90;;;;;;4889432;29;20112;-84
2023/09/28 01:02:56;;;;;;;1123.03;896.75;;;17.40;99.90;;;;;;4874442;29;20050;-83
2023/09/28 01:05:25;;;;;;;1062.28;891.42;;;17.40;99.90;;;;;;4890395;29;20114;-84
2023/09/28 01:07:51;;;;;;;1123.72;906.95;;;17.40;99.90;;;;;;4874017;29;20475;-84
2023/09/28 01:10:23;;;;;;;1053.60;880.13;;;17.40;99.90;;;;;;4890154;29;20502;-84
2023/09/28 01:12:50;;;;;;;1029.65;885.92;;;17.40;99.90;;;;;;4874787;29;20048;-84
2023/09/28 01:15:16;;;;;;;1015.38;880.70;;;17.40;99.90;;;;;;4889062;29;20051;-84
2023/09/28 01:17:43;;;;;;;1057.13;881.20;;;17.40;99.90;;;;;;4874481;29;20049;-84
2023/09/28 01:20:24;;;;;;;1011.08;870.40;;;17.40;99.90;;;;;;4874676;29;20100;-83
2023/09/28 01:22:50;;;;;;;1063.18;881.38;;;17.40;99.90;;;;;;4890012;29;20048;-84
2023/09/28 01:25:18;;;;;;;1059.63;896.35;;;17.40;99.90;;;;;;4874350;29;20500;-85
2023/09/28 01:27:49;;;;;;;1045.93;898.17;;;17.40;99.90;;;;;;4874278;29;20080;-83
2023/09/28 01:30:16;;;;;;;1076.55;892.28;;;17.40;99.90;;;;;;4874585;29;20049;-83
2023/09/28 01:32:44;;;;;;;1020.97;878.38;;;17.40;99.90;;;;;;4887647;29;20055;-83
2023/09/28 01:35:13;;;;;;;1048.30;897.67;;;17.40;99.90;;;;;;4880319;29;20045;-84
2023/09/28 01:38:03;;;;;;;1074.53;903.10;;;17.50;99.90;;;;;;4874301;29;20092;-84
2023/09/28 01:40:29;;;;;;;1090.97;906.17;;;17.50;99.90;;;;;;4875084;29;20056;-84
2023/09/28 01:42:55;;;;;;;1076.20;905.65;;;17.60;99.90;;;;;;4873283;29;20052;-84
2023/09/28 01:45:21;;;;;;;1027.40;883.78;;;17.60;99.90;;;;;;4876031;29;20460;-84
2023/09/28 01:47:47;;;;;;;1095.88;910.67;;;17.60;99.90;;;;;;4877630;29;20041;-83
2023/09/28 01:50:12;;;;;;;1075.38;887.83;;;17.70;99.90;;;;;;4893524;29;20063;-84
2023/09/28 01:52:38;;;;;;;1033.35;862.53;;;17.70;99.90;;;;;;4878053;29;20076;-84
2023/09/28 01:55:04;;;;;;;1097.97;894.83;;;17.70;99.90;;;;;;4877964;29;20068;-84
2023/09/28 01:57:31;;;;;;;1113.88;906.95;;;17.80;99.90;;;;;;4893712;29;20496;-84
2023/09/28 01:59:59;;;;;;;1074.30;889.45;;;17.80;99.90;;;;;;4892446;29;20448;-85
2023/09/28 02:02:26;;;;;;;1059.55;887.38;;;17.90;99.90;;;;;;4893863;29;20045;-84
2023/09/28 02:04:52;;;;;;;1011.42;861.92;;;17.90;99.90;;;;;;4876819;29;20623;-84
2023/09/28 02:07:18;;;;;;;938.30;829.63;;;17.90;99.90;;;;;;4893478;29;20083;-84
2023/09/28 02:09:47;;;;;;;1067.97;885.67;;;17.80;99.90;;;;;;4874047;29;20354;-84
2023/09/28 02:12:12;;;;;;;968.33;844.92;;;17.90;99.90;;;;;;4893246;29;20573;-84
2023/09/28 02:14:38;;;;;;;944.13;836.60;;;17.80;99.90;;;;;;4873628;29;20107;-84
2023/09/28 02:17:04;;;;;;;946.70;827.35;;;17.80;99.90;;;;;;4891306;29;20049;-84
2023/09/28 02:19:30;;;;;;;1009.40;857.55;;;17.80;99.90;;;;;;4893800;29;20087;-84
2023/09/28 02:21:55;;;;;;;988.03;840.65;;;17.80;99.90;;;;;;4892730;29;20041;-84
2023/09/28 02:24:21;;;;;;;925.72;815.22;;;17.80;99.90;;;;;;4893971;29;20045;-84
2023/09/28 02:26:47;;;;;;;953.20;829.28;;;17.80;99.90;;;;;;4892677;29;20104;-83
2023/09/28 02:29:13;;;;;;;1050.72;871.33;;;17.90;99.90;;;;;;4893164;29;20084;-84
2023/09/28 02:31:42;;;;;;;998.78;867.85;;;17.90;99.90;;;;;;4891257;29;20091;-84
2023/09/28 02:34:09;;;;;;;978.85;844.78;;;17.80;99.90;;;;;;4868965;29;20168;-83
2023/09/28 02:36:35;;;;;;;964.30;829.28;;;17.80;99.90;;;;;;4877262;29;20469;-84
2023/09/28 02:39:12;;;;;;;1013.30;852.65;;;17.80;99.90;;;;;;4892205;29;20055;-85
2023/09/28 02:41:38;;;;;;;1030.95;873.92;;;17.80;99.90;;;;;;4892701;29;20085;-84
2023/09/28 02:44:04;;;;;;;1089.90;886.03;;;17.80;99.90;;;;;;4892753;29;20048;-84
2023/09/28 02:46:31;;;;;;;1033.85;871.67;;;17.70;99.90;;;;;;4893102;29;20458;-84
2023/09/28 02:48:57;;;;;;;1032.40;877.60;;;17.80;99.90;;;;;;4892460;29;20052;-84
2023/09/28 02:51:23;;;;;;;1020.58;872.30;;;17.70;99.90;;;;;;4877406;29;20116;-84
2023/09/28 02:53:48;;;;;;;1051.88;889.63;;;17.70;99.90;;;;;;4876441;29;20502;-84
2023/09/28 02:56:14;;;;;;;1054.63;890.33;;;17.60;99.90;;;;;;4876794;29;20044;-84
2023/09/28 02:58:40;;;;;;;1050.65;882.35;;;17.70;99.90;;;;;;4877066;29;20515;-84
2023/09/28 03:01:08;;;;;;;1091.40;912.22;;;17.60;99.90;;;;;;4891901;29;20497;-84
2023/09/28 03:03:33;;;;;;;1041.75;885.08;;;17.60;99.90;;;;;;4876933;29;20048;-84
2023/09/28 03:06:04;;;;;;;1063.80;895.65;;;17.60;99.90;;;;;;4876466;29;20068;-83
2023/09/28 03:08:31;;;;;;;1057.45;887.30;;;17.60;99.90;;;;;;4889597;29;20051;-83
2023/09/28 03:10:58;;;;;;;1069.18;894.85;;;17.60;99.90;;;;;;4893841;29;20442;-83
2023/09/28 03:13:25;;;;;;;1060.63;895.33;;;17.50;99.90;;;;;;4876364;29;20041;-85
2023/09/28 03:15:51;;;;;;;1063.55;898.15;;;17.50;99.90;;;;;;4876165;29;20424;-84
2023/09/28 03:18:17;;;;;;;990.75;871.10;;;17.50;99.90;;;;;;4876773;29;20136;-84
2023/09/28 03:20:44;;;;;;;1084.75;906.83;;;17.50;99.90;;;;;;4891691;29;20095;-84
2023/09/28 03:23:13;;;;;;;1065.22;896.70;;;17.40;99.90;;;;;;4892539;29;20056;-84
2023/09/28 03:25:39;;;;;;;1026.53;882.55;;;17.40;99.90;;;;;;4876564;29;20183;-84
2023/09/28 03:28:05;;;;;;;1049.47;900.33;;;17.40;99.90;;;;;;4876450;29;20493;-84
2023/09/28 03:30:33;;;;;;;1035.07;894.35;;;17.30;99.90;;;;;;4875788;29;20044;-84
2023/09/28 03:32:59;;;;;;;1056.43;900.17;;;17.30;99.90;;;;;;4876617;29;20128;-85
2023/09/28 03:35:26;;;;;;;1078.63;901.33;;;17.30;99.90;;;;;;4865510;29;20464;-84
2023/09/28 03:37:54;;;;;;;1036.72;887.08;;;17.20;99.90;;;;;;4876111;29;20104;-84
2023/09/28 03:40:20;;;;;;;1009.17;874.15;;;17.20;99.90;;;;;;4876380;29;20084;-84
2023/09/28 03:42:50;;;;;;;1013.90;873.10;;;17.20;99.90;;;;;;4875402;29;20057;-84
2023/09/28 03:45:20;;;;;;;977.20;860.85;;;17.20;99.90;;;;;;4891053;29;20049;-84
2023/09/28 03:47:50;;;;;;;969.45;845.30;;;17.10;99.90;;;;;;4876214;29;20049;-85
2023/09/28 03:50:16;;;;;;;956.25;850.65;;;17.10;99.90;;;;;;4890646;29;20084;-84
2023/09/28 03:52:42;;;;;;;955.33;851.72;;;17.10;99.90;;;;;;4875885;29;20153;-84
2023/09/28 03:55:19;;;;;;;1002.22;854.33;;;17.00;99.90;;;;;;4880958;29;20093;-84
2023/09/28 03:57:45;;;;;;;947.35;845.60;;;17.00;99.90;;;;;;4906945;29;20040;-84
2023/09/28 04:00:12;;;;;;;969.85;861.15;;;17.00;99.90;;;;;;4874603;29;20049;-84
2023/09/28 04:02:52;;;;;;;956.17;852.55;;;17.00;99.90;;;;;;4871964;29;20053;-84
2023/09/28 04:05:19;;;;;;;913.90;816.97;;;16.90;99.90;;;;;;4886870;29;20501;-84
2023/09/28 04:07:44;;;;;;;931.65;832.72;;;16.90;99.90;;;;;;4890947;29;20149;-84
2023/09/28 04:10:11;;;;;;;946.20;843.20;;;16.80;99.90;;;;;;4874401;29;20446;-83
2023/09/28 04:12:37;;;;;;;949.85;849.28;;;16.80;99.90;;;;;;4875633;29;20052;-84
2023/09/28 04:15:04;;;;;;;960.30;857.85;;;16.80;99.90;;;;;;4874317;29;20064;-84
2023/09/28 04:17:30;;;;;;;917.78;821.50;;;16.80;99.90;;;;;;4875379;29;20100;-84
2023/09/28 04:19:56;;;;;;;933.50;834.55;;;16.80;99.90;;;;;;4875174;29;20055;-84
2023/09/28 04:22:21;;;;;;;923.63;827.00;;;16.70;99.90;;;;;;4875186;29;20041;-84
2023/09/28 04:24:47;;;;;;;939.42;840.25;;;16.70;99.90;;;;;;4874414;29;20055;-84
2023/09/28 04:27:13;;;;;;;938.90;841.42;;;16.70;99.90;;;;;;4874851;29;20049;-84
2023/09/28 04:29:39;;;;;;;940.85;842.25;;;16.70;99.90;;;;;;4874003;29;20057;-83
2023/09/28 04:32:05;;;;;;;919.05;824.35;;;16.60;99.90;;;;;;4882172;29;20044;-83
2023/09/28 04:34:31;;;;;;;933.47;836.92;;;16.60;99.90;;;;;;4875236;29;20047;-83
2023/09/28 04:36:57;;;;;;;921.97;825.55;;;16.60;99.90;;;;;;4874315;29;20048;-83
2023/09/28 04:39:24;;;;;;;920.22;824.78;;;16.60;99.90;;;;;;4865190;29;20059;-83
2023/09/28 04:41:58;;;;;;;899.90;808.40;;;16.50;99.90;;;;;;4874051;29;20410;-84
2023/09/28 04:44:24;;;;;;;944.45;845.55;;;16.50;99.90;;;;;;4864108;29;20041;-83
2023/09/28 04:46:50;;;;;;;914.75;822.45;;;16.50;99.90;;;;;;4870095;29;20063;-84
2023/09/28 04:49:17;;;;;;;943.20;844.20;;;16.50;99.90;;;;;;4864875;29;20041;-83
2023/09/28 04:51:43;;;;;;;931.38;835.78;;;16.50;99.90;;;;;;4871887;29;20052;-84
2023/09/28 04:54:09;;;;;;;928.60;832.28;;;16.40;99.90;;;;;;4898109;29;20386;-85
2023/09/28 04:56:35;;;;;;;919.38;823.63;;;16.40;99.90;;;;;;4871603;29;20060;-84
2023/09/28 04:59:00;;;;;;;946.50;847.08;;;16.40;99.90;;;;;;4868487;29;20052;-84
2023/09/28 05:01:27;;;;;;;935.25;837.00;;;16.40;99.90;;;;;;4873974;29;20123;-84
2023/09/28 05:03:55;;;;;;;965.05;862.65;;;16.30;99.90;;;;;;4871812;29;20477;-84
2023/09/28 05:06:21;;;;;;;919.65;826.00;;;16.30;99.90;;;;;;4880436;29;20390;-84
2023/09/28 05:08:47;;;;;;;921.78;827.33;;;16.30;99.90;;;;;;4905561;29;20194;-83
2023/09/28 05:11:13;;;;;;;938.83;840.08;;;16.30;99.90;;;;;;4872262;29;20524;-85
2023/09/28 05:13:39;;;;;;;978.45;873.45;;;16.20;99.90;;;;;;4876098;29;20056;-84
2023/09/28 05:16:04;;;;;;;958.45;856.97;;;16.20;99.90;;;;;;4874665;29;20857;-84
2023/09/28 05:18:30;;;;;;;1067.65;910.25;;;16.20;99.90;;;;;;4855178;29;20059;-84
2023/09/28 05:20:56;;;;;;;945.42;846.95;;;16.20;99.90;;;;;;4857708;29;20045;-84
2023/09/28 05:23:24;;;;;;;967.35;864.50;;;16.10;99.90;;;;;;4860845;29;20044;-85
2023/09/28 05:25:49;;;;;;;946.28;847.55;;;16.00;99.90;;;;;;4890234;29;20044;-84
2023/09/28 05:28:15;;;;;;;991.33;882.47;;;16.10;99.90;;;;;;4861982;29;20049;-84
2023/09/28 05:30:41;;;;;;;978.53;872.40;;;16.10;99.90;;;;;;4856892;29;20052;-84
2023/09/28 05:33:06;;;;;;;1029.82;890.08;;;16.10;99.90;;;;;;4861415;29;20100;-83
2023/09/28 05:35:32;;;;;;;958.47;856.05;;;16.10;99.90;;;;;;4889617;29;20040;-84
2023/09/28 05:37:58;;;;;;;1040.05;900.40;;;16.10;99.90;;;;;;4892209;29;20092;-84
2023/09/28 05:40:25;;;;;;;1089.55;922.75;;;16.10;99.90;;;;;;4891686;29;20041;-84
2023/09/28 05:42:51;;;;;;;903.83;813.78;;;16.10;99.90;;;;;;4891144;29;20123;-84
2023/09/28 05:45:17;;;;;;;979.67;873.70;;;16.10;99.90;;;;;;4877324;29;20219;-85
2023/09/28 05:47:42;;;;;;;1098.20;930.83;;;16.10;99.90;;;;;;4877789;29;20568;-83
2023/09/28 05:50:08;;;;;;;1090.85;924.83;;;16.10;99.90;;;;;;4876991;29;20503;-84
2023/09/28 05:52:34;;;;;;;997.60;889.00;;;16.10;99.90;;;;;;4877518;29;20050;-84
2023/09/28 05:55:00;;;;;;;974.58;869.72;;;16.10;99.90;;;;;;4892444;29;20044;-83
2023/09/28 05:57:26;;;;;;;1021.22;902.60;;;16.10;99.90;;;;;;4893570;29;20041;-84
2023/09/28 05:59:52;;;;;;;930.83;833.40;;;16.10;99.90;;;;;;4892882;29;20072;-84
2023/09/28 06:02:19;;;;;;;971.67;865.80;;;16.10;99.90;;;;;;4876683;29;20556;-84
2023/09/28 06:04:45;;;;;;;1030.03;903.72;;;16.10;99.90;;;;;;4875569;29;20056;-84
2023/09/28 06:07:11;;;;;;;1118.43;930.53;;;16.10;99.90;;;;;;4875630;29;20504;-82
2023/09/28 06:09:40;;;;;;;1000.35;890.17;;;16.00;99.90;;;;;;4891179;29;20053;-84
2023/09/28 06:12:07;;;;;;;942.67;845.83;;;16.10;99.90;;;;;;4891690;29;20044;-84
2023/09/28 06:14:33;;;;;;;974.03;869.78;;;16.10;99.90;;;;;;4875337;29;20084;-83
2023/09/28 06:17:00;;;;;;;1072.07;911.40;;;16.10;99.90;;;;;;4890815;29;20041;-83
2023/09/28 06:19:27;;;;;;;982.88;875.85;;;16.00;99.90;;;;;;4876988;29;20047;-83
2023/09/28 06:21:53;;;;;;;1002.47;892.95;;;16.10;99.90;;;;;;4877102;29;20040;-83
2023/09/28 06:24:18;;;;;;;987.55;879.15;;;16.00;99.90;;;;;;4876638;29;20052;-83
2023/09/28 06:26:44;;;;;;;937.08;839.78;;;16.10;99.90;;;;;;4876731;29;20053;-82
2023/09/28 06:29:11;;;;;;;952.15;852.95;;;16.10;99.90;;;;;;4892774;29;20044;-83
2023/09/28 06:31:37;;;;;;;983.85;878.78;;;16.10;99.90;;;;;;4874731;29;20157;-83
2023/09/28 06:34:03;;;;;;;941.03;843.45;;;16.10;99.90;;;;;;4877423;29;20060;-83
2023/09/28 06:36:29;;;;;;;963.85;862.92;;;16.10;99.90;;;;;;4876484;29;20103;-83
2023/09/28 06:38:55;;;;;;;920.58;828.38;;;16.20;99.90;;;;;;4891735;29;20064;-83
2023/09/28 06:41:22;;;;;;;918.83;825.40;;;16.20;99.90;;;;;;4876253;29;20044;-83
2023/09/28 06:43:48;;;;;;;946.13;846.38;;;16.20;99.90;;;;;;4876491;29;20176;-83
2023/09/28 06:46:14;;;;;;;922.47;826.90;;;16.20;99.90;;;;;;4890590;29;20409;-83
2023/09/28 06:48:40;;;;;;;880.97;793.00;;;16.30;99.90;;;;;;4892261;29;20048;-82
2023/09/28 06:51:19;;;;;;;886.33;796.92;;;16.30;99.90;;;;;;4876350;29;20095;-83
2023/09/28 06:53:45;;;;;;;896.92;805.58;;;16.30;99.90;;;;;;4876625;29;20071;-83
2023/09/28 06:56:11;;;;;;;877.63;788.72;;;16.30;99.90;;;;;;4864089;29;20040;-83
2023/09/28 06:58:39;;;;;;;903.75;811.25;;;16.40;99.90;;;;;;4876053;29;20045;-83
2023/09/28 07:01:05;;;;;;;872.65;785.50;;;16.40;99.90;;;;;;4876271;29;20040;-83
2023/09/28 07:03:33;;;;;;;878.47;790.00;;;16.40;99.90;;;;;;4891888;29;20516;-83
2023/09/28 07:06:00;;;;;;;896.35;807.08;;;16.50;99.90;;;;;;4891169;29;20398;-83
2023/09/28 07:08:26;;;;;;;913.60;819.88;;;16.50;99.90;;;;;;4876619;29;20041;-82
2023/09/28 07:10:52;;;;;;;875.08;787.70;;;16.50;99.90;;;;;;4876278;29;20059;-82
2023/09/28 07:13:18;;;;;;;903.15;810.67;;;16.50;99.90;;;;;;4875471;29;20176;-83
2023/09/28 07:15:43;;;;;;;884.78;795.47;;;16.60;99.90;;;;;;4875087;29;20421;-83
2023/09/28 07:18:09;;;;;;;913.95;819.13;;;16.70;99.90;;;;;;4892017;29;20127;-83
2023/09/28 07:20:38;;;;;;;875.75;787.65;;;16.70;99.90;;;;;;4875821;29;20057;-83
2023/09/28 07:23:04;;;;;;;867.53;779.47;;;16.80;99.90;;;;;;4876227;29;20516;-82
2023/09/28 07:25:29;;;;;;;893.45;801.50;;;16.80;99.90;;;;;;4875965;29;20040;-83
2023/09/28 07:27:56;;;;;;;902.83;809.10;;;16.90;99.90;;;;;;4890307;29;20084;-83
2023/09/28 07:30:25;;;;;;;885.85;795.25;;;16.80;99.90;;;;;;4875407;29;20579;-83
2023/09/28 07:32:51;;;;;;;893.40;801.53;;;17.00;99.90;;;;;;4875710;29;20052;-82
2023/09/28 07:35:18;;;;;;;914.75;817.33;;;17.00;99.90;;;;;;4875272;29;20044;-83
2023/09/28 07:37:44;;;;;;;891.67;800.08;;;17.10;99.90;;;;;;4875322;29;20507;-83
2023/09/28 07:40:15;;;;;;;898.42;806.38;;;17.20;99.90;;;;;;4891396;29;20217;-83
2023/09/28 07:42:43;;;;;;;910.10;814.78;;;17.30;99.90;;;;;;4873956;29;20445;-82
2023/09/28 07:45:11;;;;;;;871.53;778.08;;;17.50;99.90;;;;;;4875089;29;20469;-82
2023/09/28 07:47:38;;;;;;;917.30;817.80;;;17.60;99.90;;;;;;4873973;29;20970;-83
2023/09/28 07:50:05;;;;;;;893.25;797.85;;;17.80;99.90;;;;;;4872379;29;20084;-82
2023/09/28 07:52:31;;;;;;;901.47;771.00;;;17.80;99.90;;;;;;4902960;29;20037;-82
2023/09/28 07:54:57;;;;;;;1008.20;796.85;;;17.90;99.90;;;;;;4896519;29;20060;-81
2023/09/28 07:57:22;;;;;;;995.30;774.00;;;17.90;99.90;;;;;;4875393;29;20516;-81
2023/09/28 07:59:48;;;;;;;938.30;775.72;;;18.00;99.90;;;;;;4875018;29;20052;-82
2023/09/28 08:02:19;;;;;;;943.72;745.30;;;18.20;99.90;;;;;;4890805;29;20883;-85
2023/09/28 08:08:03;;;;;;;903.60;727.42;;;18.50;99.90;;;;;;4864968;29;20465;-84
2023/09/28 08:10:29;;;;;;;976.35;789.05;;;18.70;99.90;;;;;;4856342;29;20053;-83
2023/09/28 08:12:54;;;;;;;872.25;754.30;;;18.80;99.90;;;;;;4840654;29;20052;-83
2023/09/28 08:15:20;;;;;;;783.50;701.83;;;18.90;99.90;;;;;;4837766;29;20057;-84
2023/09/28 08:17:47;;;;;;;846.55;759.47;;;18.90;99.90;;;;;;4848065;29;20044;-84
2023/09/28 08:20:15;;;;;;;754.60;677.05;;;18.80;99.90;;;;;;4838076;29;20077;-83
2023/09/28 08:22:40;;;;;;;761.72;685.13;;;18.70;99.90;;;;;;4846093;29;20443;-83
2023/09/28 08:25:08;;;;;;;800.70;719.03;;;18.70;99.90;;;;;;4854979;29;20100;-83
2023/09/28 08:27:35;;;;;;;815.10;731.63;;;18.80;99.90;;;;;;4863544;29;20057;-83
2023/09/28 08:30:01;;;;;;;774.38;696.03;;;18.80;99.90;;;;;;4854508;29;20075;-83
2023/09/28 08:32:26;;;;;;;833.67;748.08;;;18.90;99.90;;;;;;4852315;29;20140;-83
2023/09/28 08:34:52;;;;;;;841.38;754.70;;;18.90;99.90;;;;;;4853322;29;20127;-83
2023/09/28 08:37:18;;;;;;;799.33;717.45;;;18.90;99.90;;;;;;4856107;29;20075;-83
2023/09/28 08:39:44;;;;;;;738.60;662.85;;;18.90;99.90;;;;;;4840460;29;20056;-83
2023/09/28 08:42:15;;;;;;;788.53;709.00;;;19.00;99.90;;;;;;4857404;29;20040;-83
2023/09/28 08:44:41;;;;;;;836.88;751.17;;;19.10;99.90;;;;;;4835792;29;20163;-83
2023/09/28 08:47:17;;;;;;;827.83;742.95;;;19.10;99.90;;;;;;4850358;29;20049;-82
2023/09/28 08:49:49;;;;;;;815.08;730.72;;;19.10;99.90;;;;;;4855699;29;20044;-83
2023/09/28 08:52:17;;;;;;;812.42;727.50;;;19.00;99.90;;;;;;4838840;29;20049;-83
2023/09/28 08:54:43;;;;;;;847.40;759.08;;;19.00;99.90;;;;;;4855522;29;20565;-83
2023/09/28 08:57:10;;;;;;;773.67;693.78;;;19.10;99.90;;;;;;4841043;29;20052;-83
2023/09/28 08:59:39;;;;;;;856.67;764.50;;;19.10;99.90;;;;;;4854724;29;20056;-83
2023/09/28 09:02:05;;;;;;;802.25;718.10;;;19.20;99.90;;;;;;4840244;29;20475;-83
2023/09/28 09:04:34;;;;;;;868.42;778.95;;;19.30;99.90;;;;;;4837763;29;20512;-83
2023/09/28 09:07:04;;;;;;;821.78;718.60;;;19.40;99.90;;;;;;4868848;29;20052;-83
2023/09/28 09:09:34;;;;;;;868.72;777.83;;;19.60;99.90;;;;;;4874844;29;20040;-83
2023/09/28 09:12:05;;;;;;;845.60;757.58;;;19.70;99.90;;;;;;4874244;29;20432;-83
2023/09/28 09:14:31;;;;;;;841.72;754.78;;;19.80;99.90;;;;;;4872267;29;20054;-83
2023/09/28 09:16:57;;;;;;;965.65;826.72;;;19.80;99.90;;;;;;4890427;29;20510;-83
2023/09/28 09:19:30;;;;;;;944.33;818.28;;;19.80;99.90;;;;;;4873756;29;20045;-83
2023/09/28 09:21:55;;;;;;;925.05;801.42;;;19.80;99.90;;;;;;4890011;29;20637;-83
2023/09/28 09:24:22;;;;;;;976.47;834.50;;;19.80;99.90;;;;;;4889974;29;20502;-84
2023/09/28 09:26:50;;;;;;;910.17;802.88;;;19.60;99.90;;;;;;4889182;29;20041;-83
2023/09/28 09:29:16;;;;;;;889.47;791.10;;;19.50;99.90;;;;;;4874705;29;20060;-83
2023/09/28 09:31:44;;;;;;;885.67;788.10;;;19.50;99.90;;;;;;4873211;29;20051;-82
2023/09/28 09:34:18;;;;;;;915.25;812.55;;;19.50;99.90;;;;;;4889796;29;20052;-83
2023/09/28 09:36:58;;;;;;;867.92;775.72;;;19.50;99.90;;;;;;4889290;29;20709;-82
2023/09/28 09:39:26;;;;;;;887.90;792.72;;;19.50;99.90;;;;;;4889648;29;20052;-83
2023/09/28 09:41:53;;;;;;;915.60;803.97;;;19.50;99.90;;;;;;4873184;29;20520;-82
2023/09/28 09:44:20;;;;;;;895.83;799.58;;;19.40;99.90;;;;;;4890078;29;20052;-83
2023/09/28 09:46:50;;;;;;;861.28;770.90;;;19.40;99.90;;;;;;4873995;29;20045;-82
2023/09/28 09:49:19;;;;;;;878.67;784.13;;;19.30;99.90;;;;;;4874077;29;20048;-83
2023/09/28 09:51:48;;;;;;;890.53;795.75;;;19.30;99.90;;;;;;4889475;29;20135;-83
2023/09/28 09:54:16;;;;;;;889.95;793.97;;;19.30;99.90;;;;;;4873974;29;20132;-82
2023/09/28 09:56:49;;;;;;;872.80;778.80;;;19.40;99.90;;;;;;4889330;29;20068;-83
2023/09/28 09:59:22;;;;;;;870.33;776.28;;;19.40;99.90;;;;;;4890121;29;20115;-82
2023/09/28 10:01:53;;;;;;;835.70;750.30;;;19.30;99.90;;;;;;4888092;29;20060;-82
2023/09/28 10:04:20;;;;;;;894.05;795.97;;;19.30;99.90;;;;;;4873852;29;20040;-83
2023/09/28 10:06:48;;;;;;;845.53;756.40;;;19.30;99.90;;;;;;4875662;29;20083;-82
2023/09/28 10:09:19;;;;;;;876.22;781.95;;;19.30;99.90;;;;;;4876836;29;20076;-83
2023/09/28 10:11:47;;;;;;;865.17;771.80;;;19.20;99.90;;;;;;4893140;29;20060;-82
2023/09/28 10:14:16;;;;;;;833.85;747.72;;;19.20;99.90;;;;;;4878034;29;20109;-83
2023/09/28 10:16:43;;;;;;;839.30;752.08;;;19.10;99.90;;;;;;4875068;29;20068;-83
2023/09/28 10:19:15;;;;;;;857.15;767.33;;;19.10;99.90;;;;;;4877675;29;20052;-82
2023/09/28 10:21:41;;;;;;;832.55;740.22;;;19.10;99.90;;;;;;4876595;29;20096;-83
2023/09/28 10:24:11;;;;;;;812.38;727.92;;;19.20;99.90;;;;;;4879124;29;20083;-83
2023/09/28 10:26:40;;;;;;;880.85;787.63;;;19.30;99.90;;;;;;4892511;29;20057;-84
2023/09/28 10:29:12;;;;;;;846.47;757.75;;;19.40;99.90;;;;;;4892114;29;20037;-83
2023/09/28 10:31:42;;;;;;;878.22;780.63;;;19.40;99.90;;;;;;4875759;29;20075;-84
2023/09/28 10:34:09;;;;;;;900.55;802.10;;;19.30;99.90;;;;;;4875860;29;20085;-84
2023/09/28 10:36:39;;;;;;;913.15;809.22;;;19.30;99.90;;;;;;4870332;29;20136;-84
2023/09/28 10:39:15;;;;;;;875.47;780.30;;;19.30;99.90;;;;;;4877115;29;20056;-82
2023/09/28 10:42:19;;;;;;;964.88;826.53;;;19.30;99.90;;;;;;4887650;29;20356;-84
2023/09/28 10:44:53;;;;;;;871.75;778.08;;;19.30;99.90;;;;;;4869565;29;20056;-84
2023/09/28 10:47:21;;;;;;;869.88;777.95;;;19.30;99.90;;;;;;4877526;29;20128;-84
2023/09/28 10:49:52;;;;;;;916.55;807.17;;;19.30;99.90;;;;;;4861765;29;20041;-84
2023/09/28 10:52:17;;;;;;;895.38;799.53;;;19.30;99.90;;;;;;4891881;29;20056;-84
2023/09/28 10:54:44;;;;;;;840.58;753.55;;;19.30;99.90;;;;;;4890195;29;20059;-85
2023/09/28 10:57:10;;;;;;;876.17;784.10;;;19.30;99.90;;;;;;4875692;29;20109;-84
2023/09/28 10:59:37;;;;;;;995.38;833.85;;;19.30;99.90;;;;;;4858353;29;20124;-84
2023/09/28 11:02:04;;;;;;;881.88;786.53;;;19.30;99.90;;;;;;4886326;29;20041;-84
2023/09/28 11:04:30;;;;;;;885.17;788.83;;;19.30;99.90;;;;;;4889213;29;20049;-85
2023/09/28 11:06:56;;;;;;;817.33;735.78;;;19.30;99.90;;;;;;4873486;29;20053;-86
2023/09/28 11:09:22;;;;;;;875.38;782.03;;;19.30;99.90;;;;;;4867403;29;20052;-85
2023/09/28 11:11:49;;;;;;;845.28;758.85;;;19.30;99.90;;;;;;4875557;29;20473;-85
2023/09/28 11:14:14;;;;;;;936.53;823.03;;;19.30;99.90;;;;;;4890521;29;20052;-84
2023/09/28 11:16:42;;;;;;;898.40;799.85;;;19.40;99.90;;;;;;4874648;29;20461;-84
2023/09/28 11:19:11;;;;;;;901.80;802.65;;;19.40;99.90;;;;;;4875569;29;20044;-84
2023/09/28 11:21:37;;;;;;;890.03;794.55;;;19.30;99.90;;;;;;4876270;29;20060;-85
2023/09/28 11:24:04;;;;;;;892.03;795.97;;;19.30;99.90;;;;;;4887106;29;20063;-85
2023/09/28 11:26:31;;;;;;;924.53;823.00;;;19.20;99.90;;;;;;4891175;29;20090;-84
2023/09/28 11:28:58;;;;;;;832.60;746.10;;;19.20;99.90;;;;;;4891992;29;20108;-84
2023/09/28 11:31:25;;;;;;;837.88;750.65;;;19.20;99.90;;;;;;4875365;29;20131;-84
2023/09/28 11:33:52;;;;;;;845.88;756.83;;;19.20;99.90;;;;;;4873453;29;20064;-84
2023/09/28 11:36:20;;;;;;;863.85;772.10;;;19.20;99.90;;;;;;4875348;29;20137;-85
2023/09/28 11:38:47;;;;;;;878.83;784.80;;;19.20;99.90;;;;;;4876191;29;20580;-86
2023/09/28 11:41:13;;;;;;;868.35;777.33;;;19.10;99.90;;;;;;4890446;29;20055;-85
2023/09/28 11:43:46;;;;;;;947.85;826.40;;;19.10;99.90;;;;;;4876166;29;20092;-85
2023/09/28 11:46:17;;;;;;;945.85;829.75;;;19.10;99.90;;;;;;4890636;29;20476;-85
2023/09/28 11:48:43;;;;;;;876.30;783.40;;;19.10;99.90;;;;;;4875042;29;20048;-84
2023/09/28 11:51:10;;;;;;;880.22;785.08;;;19.10;99.90;;;;;;4875410;29;20074;-84
2023/09/28 11:53:43;;;;;;;841.38;754.13;;;19.10;99.90;;;;;;4875888;29;20087;-90
2023/09/28 11:56:10;;;;;;;825.88;742.03;;;19.10;99.90;;;;;;4875277;29;20453;-83
2023/09/28 11:58:36;;;;;;;872.22;778.38;;;19.10;99.90;;;;;;4875200;29;20586;-84
2023/09/28 12:01:03;;;;;;;810.10;729.08;;;19.20;99.90;;;;;;4872240;29;20045;-83
2023/09/28 12:03:29;;;;;;;840.97;754.35;;;19.20;99.90;;;;;;4890969;29;20127;-84
2023/09/28 12:05:55;;;;;;;846.65;758.38;;;19.30;99.90;;;;;;4874615;29;20148;-84
2023/09/28 12:08:21;;;;;;;796.70;718.42;;;19.40;99.90;;;;;;4873436;29;20390;-84
2023/09/28 12:10:47;;;;;;;875.33;784.33;;;19.50;99.90;;;;;;4873641;29;20403;-84